Time;durP1;ratioP1;P1;durP2;ratioP2;P2;SDS_P1;SDS_P2;PMS_P1;PMS_P2;Temp;Humidity;BMP_temperature;BMP_pressure;BME280_temperature;BME280_humidity;BME280_pressure;Samples;Min_cycle;Max_cycle;Signal;HPM_P1;HPM_P2
2023/06/03 00:01:29;;;;;;;9.98;4.10;;;;;;;;;;5081750;28;20259;-68
2023/06/03 00:03:55;;;;;;;7.03;3.42;;;;;;;;;;5081743;28;20210;-68
2023/06/03 00:06:22;;;;;;;6.93;3.33;;;;;;;;;;5081670;28;20382;-68
2023/06/03 00:08:49;;;;;;;5.70;3.55;;;;;;;;;;5081704;28;20200;-68
2023/06/03 00:11:15;;;;;;;12.73;4.10;;;;;;;;;;5081444;28;20199;-68
2023/06/03 00:13:42;;;;;;;15.02;3.67;;;;;;;;;;5081840;28;20209;-68
2023/06/03 00:16:08;;;;;;;10.23;4.22;;;;;;;;;;5081467;28;20216;-68
2023/06/03 00:18:34;;;;;;;5.03;3.72;;;;;;;;;;5081633;28;20204;-68
2023/06/03 00:21:01;;;;;;;10.18;4.03;;;;;;;;;;5081413;28;20223;-68
2023/06/03 00:23:27;;;;;;;6.93;3.70;;;;;;;;;;5081556;28;20207;-68
2023/06/03 00:25:55;;;;;;;10.43;3.70;;;;;;;;;;5081183;28;20212;-68
2023/06/03 00:28:21;;;;;;;5.65;3.75;;;;;;;;;;5081565;28;20223;-68
2023/06/03 00:30:48;;;;;;;5.93;3.38;;;;;;;;;;5081442;28;20204;-68
2023/06/03 00:33:14;;;;;;;6.18;3.10;;;;;;;;;;5081276;28;20204;-68
2023/06/03 00:35:40;;;;;;;9.85;3.60;;;;;;;;;;5081233;28;20196;-68
2023/06/03 00:38:06;;;;;;;12.95;4.07;;;;;;;;;;5081272;28;20200;-68
2023/06/03 00:40:33;;;;;;;7.47;3.42;;;;;;;;;;5081500;28;20239;-68
2023/06/03 00:43:00;;;;;;;6.90;3.97;;;;;;;;;;5081317;28;20238;-68
2023/06/03 00:45:26;;;;;;;6.72;3.92;;;;;;;;;;5081360;28;20220;-67
2023/06/03 00:47:53;;;;;;;7.22;3.67;;;;;;;;;;5081238;28;20200;-67
2023/06/03 00:50:19;;;;;;;7.18;3.38;;;;;;;;;;5072998;28;20197;-67
2023/06/03 00:52:46;;;;;;;5.93;3.22;;;;;;;;;;5082238;28;20208;-67
2023/06/03 00:55:12;;;;;;;7.20;3.30;;;;;;;;;;5084613;28;20212;-68
2023/06/03 00:57:39;;;;;;;6.95;3.65;;;;;;;;;;5084919;28;20506;-68
2023/06/03 01:00:08;;;;;;;6.85;3.63;;;;;;;;;;5084716;28;20192;-68
2023/06/03 01:02:36;;;;;;;4.15;3.17;;;;;;;;;;5084502;28;20220;-68
2023/06/03 01:05:03;;;;;;;5.70;3.30;;;;;;;;;;5084331;28;20208;-68
2023/06/03 01:07:36;;;;;;;5.53;3.92;;;;;;;;;;5084501;28;20414;-68
2023/06/03 01:10:07;;;;;;;8.77;4.05;;;;;;;;;;5084494;28;20238;-68
2023/06/03 01:12:35;;;;;;;8.30;3.53;;;;;;;;;;5084750;28;20200;-68
2023/06/03 01:15:04;;;;;;;6.22;3.53;;;;;;;;;;5084300;28;20201;-68
2023/06/03 01:17:35;;;;;;;7.13;3.72;;;;;;;;;;5084459;28;20204;-68
2023/06/03 01:20:03;;;;;;;5.97;3.70;;;;;;;;;;5084231;28;20262;-68
2023/06/03 01:22:36;;;;;;;7.25;3.58;;;;;;;;;;5084199;28;20216;-68
2023/06/03 01:25:04;;;;;;;10.15;3.65;;;;;;;;;;5084323;28;20200;-68
2023/06/03 01:27:31;;;;;;;7.25;3.70;;;;;;;;;;5084097;28;20428;-67
2023/06/03 01:29:57;;;;;;;5.18;3.33;;;;;;;;;;5084000;28;20201;-67
2023/06/03 01:32:23;;;;;;;8.93;3.50;;;;;;;;;;5084372;28;20196;-67
2023/06/03 01:34:50;;;;;;;10.35;3.60;;;;;;;;;;5084207;28;20208;-67
2023/06/03 01:37:16;;;;;;;5.43;2.97;;;;;;;;;;5084078;28;20538;-67
2023/06/03 01:39:43;;;;;;;9.00;3.72;;;;;;;;;;5084157;28;20211;-67
2023/06/03 01:42:11;;;;;;;6.80;4.00;;;;;;;;;;5083859;28;20224;-67
2023/06/03 01:44:38;;;;;;;6.93;3.55;;;;;;;;;;5083767;28;20201;-68
2023/06/03 01:47:05;;;;;;;4.00;2.97;;;;;;;;;;5084186;28;20516;-68
2023/06/03 01:49:31;;;;;;;6.43;3.28;;;;;;;;;;5084028;28;20504;-68
2023/06/03 01:51:58;;;;;;;9.13;3.53;;;;;;;;;;5083699;28;20204;-68
2023/06/03 01:54:25;;;;;;;6.20;3.45;;;;;;;;;;5083535;28;20222;-68
2023/06/03 01:56:51;;;;;;;6.85;3.67;;;;;;;;;;5083612;28;20205;-68
2023/06/03 01:59:20;;;;;;;10.63;3.67;;;;;;;;;;5083813;28;20246;-68
2023/06/03 02:01:46;;;;;;;8.13;3.85;;;;;;;;;;5083613;28;20551;-68
2023/06/03 02:04:13;;;;;;;8.93;3.47;;;;;;;;;;5082322;28;20201;-68
2023/06/03 02:06:39;;;;;;;7.95;3.90;;;;;;;;;;5083591;28;20204;-68
2023/06/03 02:09:05;;;;;;;6.00;3.55;;;;;;;;;;5083373;28;20216;-69
2023/06/03 02:11:31;;;;;;;8.55;3.65;;;;;;;;;;5083258;28;20197;-67
2023/06/03 02:13:58;;;;;;;7.40;3.72;;;;;;;;;;5083546;28;20246;-67
2023/06/03 02:16:25;;;;;;;9.10;3.50;;;;;;;;;;5083288;28;20496;-67
2023/06/03 02:18:53;;;;;;;5.03;3.30;;;;;;;;;;5083375;28;20283;-67
2023/06/03 02:21:20;;;;;;;12.32;3.67;;;;;;;;;;5083111;28;20279;-67
2023/06/03 02:23:46;;;;;;;7.72;3.67;;;;;;;;;;5083263;28;20214;-67
2023/06/03 02:26:13;;;;;;;9.15;3.70;;;;;;;;;;5082764;28;20216;-67
2023/06/03 02:28:39;;;;;;;7.15;3.67;;;;;;;;;;5082900;28;20223;-67
2023/06/03 02:31:06;;;;;;;4.65;3.50;;;;;;;;;;5083137;28;20239;-67
2023/06/03 02:33:33;;;;;;;9.32;3.90;;;;;;;;;;5082862;28;20201;-67
2023/06/03 02:35:59;;;;;;;8.48;4.05;;;;;;;;;;5082747;28;20200;-67
2023/06/03 02:38:26;;;;;;;12.48;3.85;;;;;;;;;;5082834;28;20197;-67
2023/06/03 02:40:52;;;;;;;7.68;3.78;;;;;;;;;;5082645;28;20209;-67
2023/06/03 02:43:18;;;;;;;8.52;3.42;;;;;;;;;;5082832;28;20246;-67
2023/06/03 02:45:45;;;;;;;7.03;3.78;;;;;;;;;;5082647;28;20205;-67
2023/06/03 02:48:11;;;;;;;4.65;3.80;;;;;;;;;;5082724;28;20200;-67
2023/06/03 02:50:38;;;;;;;10.05;3.45;;;;;;;;;;5082689;28;20204;-67
2023/06/03 02:53:05;;;;;;;9.60;3.20;;;;;;;;;;5082236;28;20202;-67
2023/06/03 02:55:33;;;;;;;8.38;3.85;;;;;;;;;;5082600;28;20209;-67
2023/06/03 02:57:59;;;;;;;6.43;3.63;;;;;;;;;;5082302;28;20434;-67
2023/06/03 03:00:25;;;;;;;10.77;4.18;;;;;;;;;;5082385;28;20513;-67
2023/06/03 03:02:52;;;;;;;9.95;3.85;;;;;;;;;;5082630;28;20284;-67
2023/06/03 03:05:19;;;;;;;7.65;4.18;;;;;;;;;;5082080;28;20200;-67
2023/06/03 03:07:47;;;;;;;10.27;3.50;;;;;;;;;;5082060;28;20226;-67
2023/06/03 03:10:13;;;;;;;8.35;3.72;;;;;;;;;;5082346;28;20238;-67
2023/06/03 03:12:40;;;;;;;8.77;4.18;;;;;;;;;;5082235;28;20200;-67
2023/06/03 03:15:07;;;;;;;8.00;3.30;;;;;;;;;;5082034;28;20206;-68
2023/06/03 03:17:33;;;;;;;8.27;3.72;;;;;;;;;;5082111;28;20204;-68
2023/06/03 03:19:59;;;;;;;6.40;3.60;;;;;;;;;;5082607;28;20200;-68
2023/06/03 03:22:27;;;;;;;6.25;3.67;;;;;;;;;;5082139;28;20419;-68
2023/06/03 03:24:55;;;;;;;6.85;3.35;;;;;;;;;;5082050;28;20503;-68
2023/06/03 03:27:21;;;;;;;9.00;4.15;;;;;;;;;;5082295;28;20412;-68
2023/06/03 03:29:50;;;;;;;10.52;3.97;;;;;;;;;;5082154;28;20549;-68
2023/06/03 03:32:17;;;;;;;10.70;4.32;;;;;;;;;;5081996;28;20208;-68
2023/06/03 03:34:43;;;;;;;7.47;3.88;;;;;;;;;;5081895;28;20208;-68
2023/06/03 03:37:12;;;;;;;11.77;3.70;;;;;;;;;;5082188;28;20204;-68
2023/06/03 03:39:38;;;;;;;5.25;3.38;;;;;;;;;;5082102;28;20200;-68
2023/06/03 03:42:06;;;;;;;9.88;4.18;;;;;;;;;;5082263;28;20220;-67
2023/06/03 03:44:33;;;;;;;7.38;4.28;;;;;;;;;;5081715;28;20204;-69
2023/06/03 03:47:00;;;;;;;10.43;3.95;;;;;;;;;;5081807;28;20247;-68
2023/06/03 03:49:27;;;;;;;7.35;3.67;;;;;;;;;;5081663;28;20572;-68
2023/06/03 03:51:54;;;;;;;8.35;3.83;;;;;;;;;;5082069;28;20196;-68
2023/06/03 03:54:22;;;;;;;6.90;3.85;;;;;;;;;;5081406;28;20201;-68
2023/06/03 03:56:48;;;;;;;8.38;4.13;;;;;;;;;;5081795;28;20504;-68
2023/06/03 03:59:17;;;;;;;7.20;4.35;;;;;;;;;;5081931;28;20418;-67
2023/06/03 04:01:44;;;;;;;4.10;3.58;;;;;;;;;;5081567;28;20272;-67
2023/06/03 04:04:10;;;;;;;8.68;3.67;;;;;;;;;;5081731;28;20501;-67
2023/06/03 04:06:38;;;;;;;6.28;3.55;;;;;;;;;;5081912;28;20212;-67
2023/06/03 04:09:04;;;;;;;7.53;3.85;;;;;;;;;;5081803;28;20200;-67
2023/06/03 04:11:31;;;;;;;6.55;3.65;;;;;;;;;;5081562;28;20203;-67
2023/06/03 04:13:58;;;;;;;10.20;3.92;;;;;;;;;;5081715;28;20201;-67
2023/06/03 04:16:44;;;;;;;8.68;4.00;;;;;;;;;;5081105;28;20565;-67
2023/06/03 04:19:13;;;;;;;8.63;4.40;;;;;;;;;;5081964;28;20507;-67
2023/06/03 04:21:39;;;;;;;10.35;4.30;;;;;;;;;;5081763;28;20421;-67
2023/06/03 04:24:05;;;;;;;9.13;4.10;;;;;;;;;;5081516;28;20206;-67
2023/06/03 04:26:32;;;;;;;7.85;4.57;;;;;;;;;;5081599;28;20403;-67
2023/06/03 04:28:58;;;;;;;11.93;4.28;;;;;;;;;;5084268;28;20543;-67
2023/06/03 04:31:24;;;;;;;9.57;4.82;;;;;;;;;;5085489;28;20504;-67
2023/06/03 04:33:52;;;;;;;8.00;4.40;;;;;;;;;;5085521;28;20484;-67
2023/06/03 04:36:18;;;;;;;10.10;4.78;;;;;;;;;;5085116;28;20519;-67
2023/06/03 04:38:45;;;;;;;6.75;4.50;;;;;;;;;;5085312;28;20245;-67
2023/06/03 04:41:12;;;;;;;5.88;4.10;;;;;;;;;;5084996;28;20200;-67
2023/06/03 04:43:40;;;;;;;6.93;4.90;;;;;;;;;;5085068;28;20222;-68
2023/06/03 04:46:10;;;;;;;7.35;4.50;;;;;;;;;;5085091;28;20200;-67
2023/06/03 04:48:36;;;;;;;12.43;5.93;;;;;;;;;;5084949;28;20204;-67
2023/06/03 04:51:07;;;;;;;10.57;5.10;;;;;;;;;;5083716;28;20204;-67
2023/06/03 04:53:34;;;;;;;9.93;4.82;;;;;;;;;;5076261;28;20193;-67
2023/06/03 04:56:01;;;;;;;10.82;5.15;;;;;;;;;;5082768;28;20207;-68
2023/06/03 04:58:27;;;;;;;6.00;4.25;;;;;;;;;;5080325;28;20201;-68
2023/06/03 05:00:53;;;;;;;8.15;4.40;;;;;;;;;;5080203;28;20204;-68
2023/06/03 05:03:20;;;;;;;8.85;4.85;;;;;;;;;;5080353;28;20444;-68
2023/06/03 05:05:46;;;;;;;9.32;4.88;;;;;;;;;;5080303;28;20512;-68
2023/06/03 05:08:13;;;;;;;10.55;4.40;;;;;;;;;;5080080;28;20404;-68
2023/06/03 05:10:40;;;;;;;9.48;4.22;;;;;;;;;;5080520;28;20219;-68
2023/06/03 05:13:06;;;;;;;13.63;4.50;;;;;;;;;;5084696;28;20422;-68
2023/06/03 05:15:33;;;;;;;9.30;4.65;;;;;;;;;;5084245;28;20246;-68
2023/06/03 05:17:59;;;;;;;11.15;4.50;;;;;;;;;;5084406;28;20196;-68
2023/06/03 05:20:26;;;;;;;13.05;5.00;;;;;;;;;;5084432;28;20200;-68
2023/06/03 05:22:52;;;;;;;8.18;4.07;;;;;;;;;;5084231;28;20414;-68
2023/06/03 05:25:20;;;;;;;15.63;4.40;;;;;;;;;;5083773;28;20197;-68
2023/06/03 05:27:46;;;;;;;8.18;3.92;;;;;;;;;;5084382;28;20417;-68
2023/06/03 05:30:13;;;;;;;6.13;3.88;;;;;;;;;;5084359;28;20200;-68
2023/06/03 05:32:41;;;;;;;7.35;3.53;;;;;;;;;;5084373;28;20193;-68
2023/06/03 05:35:07;;;;;;;12.45;4.32;;;;;;;;;;5084277;28;20204;-68
2023/06/03 05:37:34;;;;;;;7.40;4.22;;;;;;;;;;5084157;28;20222;-68
2023/06/03 05:40:00;;;;;;;9.55;3.63;;;;;;;;;;5084598;28;20200;-68
2023/06/03 05:42:27;;;;;;;12.70;4.60;;;;;;;;;;5084063;28;20433;-68
2023/06/03 05:44:54;;;;;;;11.25;4.15;;;;;;;;;;5083929;28;20500;-68
2023/06/03 05:47:20;;;;;;;8.38;4.03;;;;;;;;;;5083951;28;20197;-68
2023/06/03 05:49:46;;;;;;;6.05;3.60;;;;;;;;;;5083913;28;20200;-69
2023/06/03 05:52:12;;;;;;;10.80;3.67;;;;;;;;;;5083550;28;20403;-69
2023/06/03 05:54:38;;;;;;;5.35;3.17;;;;;;;;;;5083618;28;20433;-69
2023/06/03 05:57:05;;;;;;;10.85;3.85;;;;;;;;;;5083808;28;20504;-69
2023/06/03 05:59:33;;;;;;;9.38;3.72;;;;;;;;;;5083566;28;20512;-68
2023/06/03 06:01:59;;;;;;;11.10;3.90;;;;;;;;;;5083835;28;20211;-69
2023/06/03 06:04:25;;;;;;;7.63;4.07;;;;;;;;;;5083185;28;20451;-70
2023/06/03 06:06:51;;;;;;;11.95;3.70;;;;;;;;;;5083226;28;20432;-69
2023/06/03 06:09:18;;;;;;;5.90;4.00;;;;;;;;;;5083393;28;20196;-69
2023/06/03 06:11:44;;;;;;;5.80;3.45;;;;;;;;;;5083413;28;20227;-69
2023/06/03 06:14:11;;;;;;;12.43;4.07;;;;;;;;;;5083092;28;20193;-69
2023/06/03 06:16:38;;;;;;;11.20;3.80;;;;;;;;;;5083125;28;20234;-69
2023/06/03 06:19:04;;;;;;;7.45;3.97;;;;;;;;;;5083023;28;20234;-69
2023/06/03 06:21:31;;;;;;;7.70;3.60;;;;;;;;;;5082806;28;20205;-69
2023/06/03 06:23:57;;;;;;;9.32;4.05;;;;;;;;;;5083142;28;20250;-69
2023/06/03 06:26:23;;;;;;;8.73;3.80;;;;;;;;;;5082946;28;20204;-69
2023/06/03 06:28:49;;;;;;;8.40;3.55;;;;;;;;;;5083036;28;20242;-69
2023/06/03 06:31:16;;;;;;;9.52;4.03;;;;;;;;;;5082802;28;20196;-69
2023/06/03 06:33:47;;;;;;;11.45;3.53;;;;;;;;;;5083080;28;20200;-69
2023/06/03 06:36:23;;;;;;;10.15;3.78;;;;;;;;;;5082557;28;20267;-69
2023/06/03 06:38:49;;;;;;;11.75;3.80;;;;;;;;;;5076235;28;20417;-69
2023/06/03 06:41:16;;;;;;;6.47;3.88;;;;;;;;;;5082980;28;20550;-69
2023/06/03 06:43:42;;;;;;;7.38;3.58;;;;;;;;;;5082526;28;20217;-69
2023/06/03 06:46:08;;;;;;;5.72;3.90;;;;;;;;;;5082629;28;20212;-69
2023/06/03 06:48:35;;;;;;;12.57;3.95;;;;;;;;;;5082441;28;20245;-69
2023/06/03 06:51:02;;;;;;;8.23;3.08;;;;;;;;;;5082146;28;20197;-69
2023/06/03 06:53:29;;;;;;;5.05;3.72;;;;;;;;;;5082890;28;20480;-69
2023/06/03 06:55:56;;;;;;;10.48;3.70;;;;;;;;;;5082543;28;20196;-69
2023/06/03 06:58:23;;;;;;;7.85;3.70;;;;;;;;;;5082336;28;20200;-69
2023/06/03 07:00:49;;;;;;;11.15;3.95;;;;;;;;;;5082398;28;20257;-69
2023/06/03 07:03:16;;;;;;;8.07;3.33;;;;;;;;;;5081976;28;20461;-69
2023/06/03 07:05:43;;;;;;;9.75;4.18;;;;;;;;;;5082251;28;20242;-69
2023/06/03 07:08:11;;;;;;;5.80;3.70;;;;;;;;;;5082602;28;20253;-69
2023/06/03 07:10:37;;;;;;;7.35;3.85;;;;;;;;;;5082386;28;20589;-69
2023/06/03 07:13:03;;;;;;;9.80;3.95;;;;;;;;;;5082483;28;20530;-69
2023/06/03 07:15:30;;;;;;;8.07;3.67;;;;;;;;;;5082032;28;20212;-68
2023/06/03 07:17:57;;;;;;;9.35;3.72;;;;;;;;;;5082259;28;20211;-68
2023/06/03 07:20:28;;;;;;;6.75;3.47;;;;;;;;;;5082259;28;20575;-68
2023/06/03 07:22:54;;;;;;;6.80;3.95;;;;;;;;;;5082299;28;20550;-68
2023/06/03 07:25:30;;;;;;;10.07;3.60;;;;;;;;;;5082176;28;20207;-68
2023/06/03 07:27:56;;;;;;;8.20;4.30;;;;;;;;;;5082090;28;20219;-68
2023/06/03 07:30:22;;;;;;;8.52;3.53;;;;;;;;;;5081813;28;20204;-68
2023/06/03 07:32:49;;;;;;;9.68;3.72;;;;;;;;;;5082104;28;20193;-68
2023/06/03 07:35:17;;;;;;;7.00;3.85;;;;;;;;;;5082000;28;20538;-68
2023/06/03 07:37:43;;;;;;;8.10;3.95;;;;;;;;;;5073856;28;20197;-68
2023/06/03 07:40:13;;;;;;;7.80;3.72;;;;;;;;;;5082014;28;20238;-68
2023/06/03 07:42:43;;;;;;;7.45;3.83;;;;;;;;;;5081562;28;20230;-68
2023/06/03 07:45:09;;;;;;;7.70;3.80;;;;;;;;;;5081844;28;20380;-68
2023/06/03 07:47:36;;;;;;;8.40;4.63;;;;;;;;;;5082003;28;20204;-68
2023/06/03 07:50:02;;;;;;;8.20;4.10;;;;;;;;;;5082390;28;20200;-70
2023/06/03 07:52:36;;;;;;;6.95;4.05;;;;;;;;;;5082359;28;20197;-68
2023/06/03 07:55:06;;;;;;;8.60;4.18;;;;;;;;;;5081775;28;20257;-68
2023/06/03 07:57:34;;;;;;;12.90;4.38;;;;;;;;;;5081543;28;20208;-68
2023/06/03 08:00:02;;;;;;;6.53;4.03;;;;;;;;;;5082267;28;20238;-68
2023/06/03 08:02:28;;;;;;;10.23;4.38;;;;;;;;;;5082140;28;20224;-68
2023/06/03 08:05:00;;;;;;;9.32;3.85;;;;;;;;;;5085862;28;20196;-68
2023/06/03 08:07:27;;;;;;;6.15;3.90;;;;;;;;;;5085668;28;20245;-68
2023/06/03 08:09:53;;;;;;;9.10;3.83;;;;;;;;;;5085798;28;20196;-68
2023/06/03 08:12:21;;;;;;;7.15;4.15;;;;;;;;;;5086100;28;20196;-68
2023/06/03 08:14:47;;;;;;;8.07;3.20;;;;;;;;;;5077944;28;20227;-68
2023/06/03 08:17:15;;;;;;;8.48;4.15;;;;;;;;;;5086015;28;20243;-68
2023/06/03 08:19:44;;;;;;;8.30;4.10;;;;;;;;;;5085583;28;20200;-68
2023/06/03 08:22:22;;;;;;;5.47;3.67;;;;;;;;;;5085576;28;20423;-68
2023/06/03 08:24:48;;;;;;;10.13;3.85;;;;;;;;;;5077791;28;20216;-69
2023/06/03 08:27:14;;;;;;;7.78;4.00;;;;;;;;;;5085642;28;20290;-69
2023/06/03 08:29:41;;;;;;;11.27;4.55;;;;;;;;;;5085277;28;20554;-69
2023/06/03 08:32:07;;;;;;;9.00;4.10;;;;;;;;;;5085540;28;20402;-69
2023/06/03 08:34:35;;;;;;;13.35;4.60;;;;;;;;;;5085156;28;20203;-69
2023/06/03 08:37:01;;;;;;;6.80;4.00;;;;;;;;;;5085382;28;20503;-69
2023/06/03 08:39:27;;;;;;;9.60;4.00;;;;;;;;;;5085287;28;20263;-69
2023/06/03 08:41:54;;;;;;;9.50;4.15;;;;;;;;;;5085375;28;20242;-69
2023/06/03 08:44:22;;;;;;;7.63;4.03;;;;;;;;;;5084864;28;20216;-69
2023/06/03 08:46:57;;;;;;;11.25;4.40;;;;;;;;;;5077656;28;20204;-69
2023/06/03 08:49:27;;;;;;;10.20;3.90;;;;;;;;;;5084878;28;20200;-69
2023/06/03 08:51:55;;;;;;;9.55;3.60;;;;;;;;;;5085373;28;20508;-69
2023/06/03 08:54:23;;;;;;;8.75;4.10;;;;;;;;;;5085140;28;20193;-69
2023/06/03 08:56:54;;;;;;;16.50;4.25;;;;;;;;;;5077156;28;20200;-69
2023/06/03 08:59:22;;;;;;;9.13;3.58;;;;;;;;;;5084979;28;20485;-69
2023/06/03 09:01:51;;;;;;;8.70;3.88;;;;;;;;;;5077154;28;20196;-69
2023/06/03 09:04:17;;;;;;;9.80;4.13;;;;;;;;;;5084785;28;20450;-69
2023/06/03 09:06:44;;;;;;;6.05;3.97;;;;;;;;;;5084749;28;20201;-69
2023/06/03 09:09:13;;;;;;;12.38;4.28;;;;;;;;;;5084841;28;20196;-69
2023/06/03 09:11:40;;;;;;;8.15;4.32;;;;;;;;;;5084492;28;20200;-69
2023/06/03 09:14:06;;;;;;;8.63;4.38;;;;;;;;;;5084021;28;20192;-69
2023/06/03 09:16:34;;;;;;;4.85;4.03;;;;;;;;;;5084488;28;20207;-69
2023/06/03 09:19:00;;;;;;;11.63;4.68;;;;;;;;;;5084676;28;20392;-69
2023/06/03 09:21:27;;;;;;;7.75;4.25;;;;;;;;;;5084176;28;20202;-69
2023/06/03 09:23:54;;;;;;;4.50;4.10;;;;;;;;;;5084172;28;20222;-69
2023/06/03 09:26:21;;;;;;;8.40;4.30;;;;;;;;;;5084011;28;20200;-69
2023/06/03 09:28:48;;;;;;;8.52;4.45;;;;;;;;;;5083853;28;20222;-69
2023/06/03 09:31:15;;;;;;;12.02;5.00;;;;;;;;;;5084010;28;20238;-69
2023/06/03 09:33:41;;;;;;;6.50;4.40;;;;;;;;;;5084203;28;20196;-69
2023/06/03 09:36:08;;;;;;;9.65;3.80;;;;;;;;;;5083989;28;20195;-69
2023/06/03 09:38:51;;;;;;;10.30;4.38;;;;;;;;;;5083847;28;20200;-69
2023/06/03 09:41:18;;;;;;;6.47;4.18;;;;;;;;;;5083762;28;20214;-69
2023/06/03 09:43:55;;;;;;;7.55;4.07;;;;;;;;;;5083632;28;20262;-69
2023/06/03 09:46:22;;;;;;;5.78;3.75;;;;;;;;;;5083718;28;20203;-69
2023/06/03 09:48:48;;;;;;;7.63;4.18;;;;;;;;;;5083536;28;20222;-69
2023/06/03 09:51:15;;;;;;;4.72;4.00;;;;;;;;;;5083761;28;20238;-69
2023/06/03 09:53:41;;;;;;;8.15;4.25;;;;;;;;;;5083366;28;20192;-69
2023/06/03 09:56:20;;;;;;;8.85;4.63;;;;;;;;;;5083341;28;20207;-69
2023/06/03 09:58:47;;;;;;;9.80;4.40;;;;;;;;;;5083557;28;20203;-68
2023/06/03 10:01:17;;;;;;;9.07;4.07;;;;;;;;;;5083834;28;20503;-68
2023/06/03 10:03:57;;;;;;;8.32;4.30;;;;;;;;;;5083601;28;20220;-68
2023/06/03 10:06:23;;;;;;;6.15;3.92;;;;;;;;;;5083218;28;20541;-68
2023/06/03 10:08:49;;;;;;;9.65;4.47;;;;;;;;;;5083353;28;20196;-68
2023/06/03 10:11:15;;;;;;;9.55;4.75;;;;;;;;;;5083683;28;20196;-68
2023/06/03 10:13:42;;;;;;;10.80;4.15;;;;;;;;;;5083485;28;20203;-68
2023/06/03 10:16:10;;;;;;;11.25;4.30;;;;;;;;;;5083262;28;20219;-68
2023/06/03 10:18:39;;;;;;;7.18;4.38;;;;;;;;;;5083297;28;20208;-69
2023/06/03 10:21:08;;;;;;;10.15;4.50;;;;;;;;;;5083046;28;20196;-69
2023/06/03 10:23:37;;;;;;;5.50;4.53;;;;;;;;;;5083166;28;20546;-69
2023/06/03 10:26:03;;;;;;;6.63;4.28;;;;;;;;;;5082304;28;20434;-69
2023/06/03 10:28:31;;;;;;;12.45;4.53;;;;;;;;;;5083024;28;20223;-69
2023/06/03 10:30:57;;;;;;;8.18;4.57;;;;;;;;;;5082948;28;20512;-69
2023/06/03 10:33:24;;;;;;;6.70;4.40;;;;;;;;;;5082903;28;20507;-69
2023/06/03 10:35:52;;;;;;;12.50;4.50;;;;;;;;;;5082983;28;20442;-69
2023/06/03 10:38:18;;;;;;;9.27;4.05;;;;;;;;;;5083049;28;20215;-69
2023/06/03 10:40:45;;;;;;;8.63;4.45;;;;;;;;;;5082993;28;20499;-69
2023/06/03 10:43:11;;;;;;;9.63;4.68;;;;;;;;;;5082618;28;20207;-69
2023/06/03 10:45:38;;;;;;;5.30;4.43;;;;;;;;;;5082572;28;20200;-69
2023/06/03 10:48:07;;;;;;;10.13;4.18;;;;;;;;;;5082570;28;20241;-69
2023/06/03 10:50:38;;;;;;;5.40;4.32;;;;;;;;;;5082669;28;20200;-69
2023/06/03 10:53:13;;;;;;;7.97;4.10;;;;;;;;;;5082833;28;20196;-69
2023/06/03 10:55:45;;;;;;;11.60;4.90;;;;;;;;;;5082440;28;20237;-69
2023/06/03 10:58:15;;;;;;;8.25;4.40;;;;;;;;;;5082634;28;20199;-69
2023/06/03 11:00:55;;;;;;;8.10;4.72;;;;;;;;;;5082201;28;20208;-69
2023/06/03 11:03:22;;;;;;;7.72;4.40;;;;;;;;;;5082401;28;20196;-69
2023/06/03 11:05:48;;;;;;;7.95;4.78;;;;;;;;;;5082212;28;20207;-69
2023/06/03 11:08:36;;;;;;;11.75;4.20;;;;;;;;;;5082152;28;20245;-69
2023/06/03 11:11:02;;;;;;;7.43;4.95;;;;;;;;;;5074862;28;20199;-69
2023/06/03 11:13:40;;;;;;;5.50;4.47;;;;;;;;;;5082319;28;20266;-69
2023/06/03 11:16:06;;;;;;;8.77;4.78;;;;;;;;;;5075327;28;20305;-69
2023/06/03 11:18:33;;;;;;;10.15;4.70;;;;;;;;;;5082043;28;20207;-69
2023/06/03 11:20:59;;;;;;;6.82;4.70;;;;;;;;;;5082164;28;20196;-69
2023/06/03 11:23:43;;;;;;;5.85;4.65;;;;;;;;;;5082009;28;20263;-69
2023/06/03 11:26:39;;;;;;;7.35;4.95;;;;;;;;;;5075391;28;20243;-69
2023/06/03 11:29:06;;;;;;;5.93;4.40;;;;;;;;;;5048225;28;20255;-69
2023/06/03 11:31:33;;;;;;;12.57;4.70;;;;;;;;;;5073578;28;20203;-69
2023/06/03 11:34:18;;;;;;;8.98;4.80;;;;;;;;;;5081842;28;20198;-69
2023/06/03 11:36:47;;;;;;;6.20;4.63;;;;;;;;;;5081805;28;20208;-68
2023/06/03 11:39:15;;;;;;;7.43;4.63;;;;;;;;;;5081836;28;20208;-68
2023/06/03 11:42:00;;;;;;;7.30;4.85;;;;;;;;;;5081583;28;20200;-68
2023/06/03 11:44:27;;;;;;;5.60;4.55;;;;;;;;;;5081438;28;20290;-68
2023/06/03 11:46:53;;;;;;;5.22;4.43;;;;;;;;;;5081726;28;20203;-68
2023/06/03 11:49:21;;;;;;;9.73;4.60;;;;;;;;;;5081934;28;20365;-68
2023/06/03 11:51:49;;;;;;;9.95;5.07;;;;;;;;;;5081607;28;20444;-68
2023/06/03 11:54:20;;;;;;;6.97;4.60;;;;;;;;;;5081398;28;20203;-68
2023/06/03 11:56:46;;;;;;;9.90;4.60;;;;;;;;;;5081508;28;20395;-68
2023/06/03 11:59:13;;;;;;;5.32;4.85;;;;;;;;;;5081792;28;20241;-68
2023/06/03 12:01:53;;;;;;;10.65;4.60;;;;;;;;;;5081396;28;20199;-68
2023/06/03 12:04:20;;;;;;;8.85;5.15;;;;;;;;;;5081205;28;20269;-68
2023/06/03 12:06:46;;;;;;;7.32;5.00;;;;;;;;;;5081688;28;20248;-68
2023/06/03 12:09:18;;;;;;;10.32;5.15;;;;;;;;;;5081813;28;20554;-68
2023/06/03 12:11:44;;;;;;;6.20;4.82;;;;;;;;;;5081935;28;20199;-68
2023/06/03 12:14:10;;;;;;;4.50;4.10;;;;;;;;;;5081562;28;20226;-68
2023/06/03 12:16:38;;;;;;;6.72;4.53;;;;;;;;;;5081685;28;20200;-68
2023/06/03 12:19:05;;;;;;;6.40;4.38;;;;;;;;;;5082099;28;20196;-68
2023/06/03 12:21:32;;;;;;;6.88;4.22;;;;;;;;;;5081716;28;20199;-69
2023/06/03 12:23:58;;;;;;;9.40;4.50;;;;;;;;;;5081470;28;20199;-69
2023/06/03 12:26:26;;;;;;;7.38;4.45;;;;;;;;;;5081410;28;20208;-69
2023/06/03 12:28:54;;;;;;;6.70;4.30;;;;;;;;;;5081484;28;20223;-69
2023/06/03 12:31:20;;;;;;;8.75;4.50;;;;;;;;;;5081786;28;20454;-69
2023/06/03 12:33:47;;;;;;;6.75;4.40;;;;;;;;;;5081499;28;20204;-69
2023/06/03 12:36:14;;;;;;;7.72;4.55;;;;;;;;;;5081359;28;20196;-68
2023/06/03 12:38:53;;;;;;;5.82;4.63;;;;;;;;;;5081825;28;20215;-68
2023/06/03 12:41:20;;;;;;;7.63;4.75;;;;;;;;;;5081449;28;20215;-68
2023/06/03 12:43:48;;;;;;;8.02;4.85;;;;;;;;;;5081576;28;20199;-68
2023/06/03 12:46:16;;;;;;;6.43;4.20;;;;;;;;;;5081372;28;20203;-68
2023/06/03 12:48:42;;;;;;;5.13;4.50;;;;;;;;;;5082076;28;20199;-69
2023/06/03 12:51:21;;;;;;;6.90;4.60;;;;;;;;;;5085066;28;20463;-69
2023/06/03 12:53:47;;;;;;;5.38;4.40;;;;;;;;;;5085256;28;20199;-69
2023/06/03 12:56:13;;;;;;;6.45;4.43;;;;;;;;;;5084992;28;20363;-68
2023/06/03 12:58:42;;;;;;;5.00;4.57;;;;;;;;;;5085041;28;20565;-69
2023/06/03 13:01:09;;;;;;;6.78;4.50;;;;;;;;;;5084921;28;20203;-69
2023/06/03 13:03:36;;;;;;;4.60;4.30;;;;;;;;;;5085048;28;20200;-69
2023/06/03 13:06:02;;;;;;;5.47;4.97;;;;;;;;;;5076703;28;20257;-69
2023/06/03 13:08:28;;;;;;;5.13;4.70;;;;;;;;;;5084842;28;20200;-69
2023/06/03 13:10:55;;;;;;;8.48;4.78;;;;;;;;;;5084776;28;20200;-69
2023/06/03 13:13:21;;;;;;;5.28;4.35;;;;;;;;;;5084878;28;20203;-68
2023/06/03 13:15:47;;;;;;;3.85;3.65;;;;;;;;;;5084811;28;20242;-68
2023/06/03 13:18:15;;;;;;;6.55;4.72;;;;;;;;;;5084686;28;20309;-68
2023/06/03 13:20:41;;;;;;;6.53;4.57;;;;;;;;;;5084727;28;20236;-69
2023/06/03 13:23:08;;;;;;;6.93;4.38;;;;;;;;;;5084534;28;20233;-69
2023/06/03 13:25:34;;;;;;;5.97;4.00;;;;;;;;;;5084436;28;20539;-69
2023/06/03 13:28:00;;;;;;;9.02;4.78;;;;;;;;;;5084458;28;20223;-69
2023/06/03 13:30:27;;;;;;;4.88;4.45;;;;;;;;;;5084439;28;20412;-69
2023/06/03 13:32:53;;;;;;;4.78;4.13;;;;;;;;;;5084299;28;20257;-69
2023/06/03 13:35:21;;;;;;;5.05;4.47;;;;;;;;;;5084451;28;20214;-69
2023/06/03 13:37:47;;;;;;;5.07;4.50;;;;;;;;;;5084191;28;20213;-69
2023/06/03 13:40:14;;;;;;;4.75;4.30;;;;;;;;;;5084066;28;20218;-69
2023/06/03 13:42:41;;;;;;;5.07;3.72;;;;;;;;;;5084239;28;20200;-69
2023/06/03 13:45:07;;;;;;;5.47;4.55;;;;;;;;;;5083915;28;20535;-68
2023/06/03 13:47:33;;;;;;;5.18;4.68;;;;;;;;;;5084491;28;20387;-69
2023/06/03 13:50:00;;;;;;;7.25;4.22;;;;;;;;;;5084056;28;20204;-69
2023/06/03 13:52:27;;;;;;;4.60;3.95;;;;;;;;;;5084011;28;20200;-69
2023/06/03 13:54:54;;;;;;;6.03;4.22;;;;;;;;;;5083573;28;20203;-69
2023/06/03 13:57:20;;;;;;;5.10;4.30;;;;;;;;;;5083746;28;20196;-69
2023/06/03 13:59:46;;;;;;;5.68;3.85;;;;;;;;;;5082894;28;20200;-69
2023/06/03 14:02:13;;;;;;;4.57;4.10;;;;;;;;;;5083314;28;20215;-69
2023/06/03 14:04:39;;;;;;;5.18;3.90;;;;;;;;;;5083539;28;20228;-69
2023/06/03 14:07:06;;;;;;;6.82;4.18;;;;;;;;;;5075775;28;20200;-69
2023/06/03 14:09:33;;;;;;;6.22;4.53;;;;;;;;;;5083505;28;20207;-69
2023/06/03 14:12:00;;;;;;;5.38;4.00;;;;;;;;;;5083487;28;20207;-70
2023/06/03 14:14:26;;;;;;;6.32;3.92;;;;;;;;;;5083248;28;20549;-69
2023/06/03 14:16:52;;;;;;;6.32;4.03;;;;;;;;;;5083762;28;20530;-69
2023/06/03 14:19:18;;;;;;;5.50;4.10;;;;;;;;;;5083719;28;20503;-69
2023/06/03 14:21:45;;;;;;;8.18;3.97;;;;;;;;;;5083339;28;20388;-69
2023/06/03 14:24:11;;;;;;;6.53;4.18;;;;;;;;;;5083167;28;20412;-69
2023/06/03 14:26:39;;;;;;;8.10;4.50;;;;;;;;;;5083640;28;20448;-69
2023/06/03 14:29:06;;;;;;;6.57;4.82;;;;;;;;;;5083473;28;20530;-70
2023/06/03 14:31:32;;;;;;;5.40;4.35;;;;;;;;;;5083255;28;20542;-69
2023/06/03 14:33:58;;;;;;;5.15;4.40;;;;;;;;;;5083099;28;20206;-69
2023/06/03 14:36:25;;;;;;;7.32;4.13;;;;;;;;;;5083155;28;20193;-69
2023/06/03 14:38:51;;;;;;;4.35;3.92;;;;;;;;;;5083031;28;20199;-69
2023/06/03 14:41:17;;;;;;;4.65;3.83;;;;;;;;;;5083021;28;20398;-69
2023/06/03 14:43:45;;;;;;;5.15;3.92;;;;;;;;;;5083107;28;20214;-69